createdAt,value
2018-06-08T00:00:52.187Z,4.03
2018-06-08T00:03:21.680Z,4.93
2018-06-08T00:05:50.969Z,4.50
2018-06-08T00:08:20.355Z,4.47
2018-06-08T00:10:49.809Z,4.10
2018-06-08T00:13:19.174Z,4.27
2018-06-08T00:15:48.681Z,4.30
2018-06-08T00:18:17.927Z,4.27
2018-06-08T00:20:47.232Z,3.97
2018-06-08T00:23:16.523Z,3.60
2018-06-08T00:25:45.836Z,3.90
2018-06-08T00:28:14.914Z,4.80
2018-06-08T00:30:44.236Z,4.23
2018-06-08T00:33:13.685Z,4.10
2018-06-08T00:35:42.915Z,4.73
2018-06-08T00:38:12.224Z,4.47
2018-06-08T00:40:41.651Z,4.13
2018-06-08T00:43:10.992Z,4.20
2018-06-08T00:45:41.303Z,5.23
2018-06-08T00:48:10.686Z,4.47
2018-06-08T00:50:39.989Z,4.63
2018-06-08T00:53:09.393Z,5.37
2018-06-08T00:55:38.617Z,5.83
2018-06-08T00:58:07.962Z,4.83
2018-06-08T01:00:37.282Z,4.40
2018-06-08T01:03:06.746Z,4.50
2018-06-08T01:05:36.032Z,3.70
2018-06-08T01:08:05.378Z,3.73
2018-06-08T01:10:34.640Z,3.70
2018-06-08T01:13:04.006Z,3.73
2018-06-08T01:15:33.229Z,4.40
2018-06-08T01:18:02.648Z,4.37
2018-06-08T01:20:31.920Z,4.30
2018-06-08T01:23:01.384Z,4.57
2018-06-08T01:25:30.742Z,4.50
2018-06-08T01:27:59.971Z,4.10
2018-06-08T01:30:29.240Z,3.77
2018-06-08T01:32:58.503Z,4.37
2018-06-08T01:35:27.927Z,4.77
2018-06-08T01:37:57.346Z,4.13
2018-06-08T01:40:26.577Z,4.70
2018-06-08T01:42:55.884Z,4.60
2018-06-08T01:45:25.273Z,5.10
2018-06-08T01:47:54.790Z,5.10
2018-06-08T01:50:24.167Z,4.30
2018-06-08T01:52:53.600Z,4.20
2018-06-08T01:55:22.968Z,5.43
2018-06-08T01:57:52.432Z,4.63
2018-06-08T02:00:21.691Z,4.40
2018-06-08T02:02:51.041Z,5.13
2018-06-08T02:05:20.318Z,4.23
2018-06-08T02:07:49.757Z,5.03
2018-06-08T02:10:19.150Z,4.40
2018-06-08T02:12:48.437Z,5.30
2018-06-08T02:15:17.802Z,4.77
2018-06-08T02:17:47.221Z,5.53
2018-06-08T02:20:16.728Z,5.27
2018-06-08T02:22:46.449Z,4.90
2018-06-08T02:25:16.096Z,5.20
2018-06-08T02:27:45.495Z,4.67
2018-06-08T02:30:15.022Z,4.90
2018-06-08T02:32:44.387Z,4.50
2018-06-08T02:35:14.322Z,5.00
2018-06-08T02:37:44.562Z,4.27
2018-06-08T02:40:13.820Z,3.73
2018-06-08T02:42:43.085Z,5.10
2018-06-08T02:45:12.537Z,5.93
2018-06-08T02:47:41.988Z,5.37
2018-06-08T02:50:11.407Z,5.50
2018-06-08T02:52:40.848Z,6.40
2018-06-08T02:55:10.318Z,5.63
2018-06-08T02:57:39.943Z,6.50
2018-06-08T03:00:09.281Z,7.47
2018-06-08T03:02:38.729Z,6.13
2018-06-08T03:05:08.102Z,7.10
2018-06-08T03:07:37.669Z,5.57
2018-06-08T03:10:06.980Z,6.00
2018-06-08T03:12:36.223Z,5.43
2018-06-08T03:15:05.647Z,5.70
2018-06-08T03:17:35.002Z,6.13
2018-06-08T03:20:04.569Z,6.73
2018-06-08T03:22:33.988Z,6.27
2018-06-08T03:25:03.363Z,6.07
2018-06-08T03:27:32.878Z,5.77
2018-06-08T03:30:02.360Z,5.33
2018-06-08T03:32:31.824Z,4.13
2018-06-08T03:35:01.185Z,5.60
2018-06-08T03:37:30.605Z,6.60
2018-06-08T03:39:59.993Z,5.10
2018-06-08T03:42:29.485Z,5.40
2018-06-08T03:44:58.965Z,5.70
2018-06-08T03:47:28.332Z,5.80
2018-06-08T03:49:57.672Z,4.63
2018-06-08T03:52:29.231Z,5.87
2018-06-08T03:54:58.674Z,5.50
2018-06-08T03:57:28.140Z,5.40
2018-06-08T03:59:57.520Z,5.83
2018-06-08T04:02:26.755Z,5.20
2018-06-08T04:04:56.095Z,4.97
2018-06-08T04:07:25.397Z,6.00
2018-06-08T04:09:54.709Z,5.77
2018-06-08T04:12:24.086Z,5.67
2018-06-08T04:14:53.574Z,5.67
2018-06-08T04:17:23.386Z,6.00
2018-06-08T04:19:52.714Z,5.97
2018-06-08T04:22:22.027Z,5.73
2018-06-08T04:24:51.353Z,6.40
2018-06-08T04:27:20.758Z,6.47
2018-06-08T04:29:50.242Z,6.20
2018-06-08T04:32:19.717Z,5.70
2018-06-08T04:34:49.669Z,6.67
2018-06-08T04:37:19.001Z,6.47
2018-06-08T04:39:48.300Z,6.60
2018-06-08T04:42:17.643Z,6.33
2018-06-08T04:44:47.111Z,6.40
2018-06-08T04:47:16.531Z,6.83
2018-06-08T04:49:46.694Z,6.00
2018-06-08T04:52:16.146Z,6.23
2018-06-08T04:54:45.457Z,5.60
2018-06-08T04:57:14.972Z,16.97
2018-06-08T04:59:44.255Z,13.10
2018-06-08T05:02:14.564Z,13.00
2018-06-08T05:04:44.486Z,8.93
2018-06-08T05:07:14.584Z,7.90
2018-06-08T05:09:44.104Z,6.90
2018-06-08T05:12:14.787Z,5.93
2018-06-08T05:14:44.278Z,6.10
2018-06-08T05:17:13.665Z,7.07
2018-06-08T05:19:42.994Z,6.20
2018-06-08T05:22:12.379Z,6.33
2018-06-08T05:24:41.839Z,7.00
2018-06-08T05:27:11.139Z,7.33
2018-06-08T05:29:40.452Z,6.53
2018-06-08T05:32:09.746Z,6.97
2018-06-08T05:34:40.646Z,7.30
2018-06-08T05:37:09.977Z,6.00
2018-06-08T05:39:39.389Z,5.73
2018-06-08T05:42:08.836Z,5.70
2018-06-08T05:44:38.268Z,6.20
2018-06-08T05:47:07.638Z,6.93
2018-06-08T05:49:36.983Z,7.60
2018-06-08T05:52:06.426Z,7.37
2018-06-08T05:54:35.832Z,7.00
2018-06-08T05:57:05.385Z,6.67
2018-06-08T05:59:34.745Z,6.03
2018-06-08T06:02:04.105Z,8.47
2018-06-08T06:04:33.356Z,8.73
2018-06-08T06:07:03.488Z,6.90
2018-06-08T06:09:32.847Z,7.40
2018-06-08T06:12:02.169Z,8.83
2018-06-08T06:14:31.512Z,9.47
2018-06-08T06:17:01.101Z,8.77
2018-06-08T06:19:30.554Z,10.37
2018-06-08T06:21:59.948Z,8.43
2018-06-08T06:24:29.396Z,7.73
2018-06-08T06:26:58.973Z,9.70
2018-06-08T06:29:28.376Z,8.03
2018-06-08T06:31:57.627Z,8.60
2018-06-08T06:34:26.970Z,7.30
2018-06-08T06:36:56.770Z,8.30
2018-06-08T06:39:26.010Z,9.13
2018-06-08T06:41:55.447Z,9.57
2018-06-08T06:44:24.784Z,8.43
2018-06-08T06:46:53.996Z,8.70
2018-06-08T06:49:23.335Z,9.73
2018-06-08T06:51:52.844Z,9.50
2018-06-08T06:54:22.407Z,8.43
2018-06-08T06:56:51.920Z,8.63
2018-06-08T06:59:21.243Z,8.63
2018-06-08T07:01:50.737Z,8.43
2018-06-08T07:04:20.229Z,8.20
2018-06-08T07:06:50.510Z,8.70
2018-06-08T07:09:19.816Z,8.90
2018-06-08T07:11:49.493Z,10.20
2018-06-08T07:14:19.159Z,9.90
2018-06-08T07:16:48.576Z,9.47
2018-06-08T07:19:17.943Z,8.80
2018-06-08T07:21:47.151Z,9.10
2018-06-08T07:24:17.122Z,9.00
2018-06-08T07:26:46.512Z,8.87
2018-06-08T07:29:16.278Z,9.17
2018-06-08T07:31:45.704Z,8.40
2018-06-08T07:34:14.964Z,9.80
2018-06-08T07:36:44.345Z,10.23
2018-06-08T07:39:13.758Z,9.27
2018-06-08T07:41:42.880Z,10.33
2018-06-08T07:44:11.877Z,9.57
2018-06-08T07:46:41.479Z,7.97
2018-06-08T07:49:10.533Z,7.93
2018-06-08T07:51:39.641Z,8.97
2018-06-08T07:54:08.696Z,7.50
2018-06-08T07:56:37.795Z,6.20
2018-06-08T07:59:06.751Z,8.13
2018-06-08T08:01:35.810Z,8.80
2018-06-08T08:04:05.571Z,6.70
2018-06-08T08:06:34.626Z,6.17
2018-06-08T08:09:03.864Z,6.37
2018-06-08T08:11:32.947Z,6.60
2018-06-08T08:14:01.960Z,6.23
2018-06-08T08:16:31.250Z,5.50
2018-06-08T08:19:00.533Z,7.10
2018-06-08T08:21:29.585Z,5.90
2018-06-08T08:23:58.595Z,4.90
2018-06-08T08:26:27.644Z,6.47
2018-06-08T08:28:56.704Z,7.10
2018-06-08T08:31:25.808Z,7.50
2018-06-08T08:33:54.771Z,6.07
2018-06-08T08:36:23.787Z,6.80
2018-06-08T08:38:52.789Z,7.30
2018-06-08T08:41:21.850Z,7.07
2018-06-08T08:43:50.911Z,8.17
2018-06-08T08:46:21.089Z,8.10
2018-06-08T08:48:50.204Z,7.40
2018-06-08T08:51:19.295Z,6.57
2018-06-08T08:53:48.358Z,7.00
2018-06-08T08:56:17.453Z,8.50
2018-06-08T08:58:46.579Z,8.33
2018-06-08T09:01:15.638Z,6.93
2018-06-08T09:03:44.738Z,7.93
2018-06-08T09:06:13.766Z,6.80
2018-06-08T09:08:43.288Z,7.53
2018-06-08T09:11:12.294Z,7.10
2018-06-08T09:13:41.340Z,7.77
2018-06-08T09:16:10.532Z,7.10
2018-06-08T09:18:39.525Z,6.30
2018-06-08T09:21:08.515Z,6.60
2018-06-08T09:23:37.529Z,6.20
2018-06-08T09:26:06.801Z,6.60
2018-06-08T09:28:35.823Z,6.80
2018-06-08T09:31:04.751Z,6.63
2018-06-08T09:33:33.804Z,6.50
2018-06-08T09:36:02.835Z,6.50
2018-06-08T09:38:31.890Z,5.93
2018-06-08T09:41:00.936Z,6.20
2018-06-08T09:43:29.969Z,6.50
2018-06-08T09:45:58.960Z,6.30
2018-06-08T09:48:28.157Z,6.20
2018-06-08T09:50:57.157Z,5.47
2018-06-08T09:53:26.209Z,5.70
2018-06-08T09:55:55.281Z,6.13
2018-06-08T09:58:24.480Z,5.63
2018-06-08T10:00:53.594Z,6.30
2018-06-08T10:03:22.727Z,6.33
2018-06-08T10:05:51.716Z,4.83
2018-06-08T10:08:20.703Z,5.37
2018-06-08T10:10:49.754Z,5.30
2018-06-08T10:13:18.735Z,4.70
2018-06-08T10:15:47.792Z,3.87
2018-06-08T10:18:16.899Z,3.93
2018-06-08T10:20:45.964Z,5.60
2018-06-08T10:23:15.005Z,5.63
2018-06-08T10:25:44.052Z,5.17
2018-06-08T10:28:13.028Z,4.47
2018-06-08T10:30:42.182Z,6.00
2018-06-08T10:33:11.780Z,4.50
2018-06-08T10:35:40.756Z,4.80
2018-06-08T10:38:09.915Z,4.10
2018-06-08T10:40:39.889Z,4.73
2018-06-08T10:43:08.947Z,5.03
2018-06-08T10:45:37.889Z,6.03
2018-06-08T10:48:06.903Z,4.80
2018-06-08T10:50:36.035Z,4.20
2018-06-08T10:53:05.131Z,4.50
2018-06-08T10:55:35.064Z,4.30
2018-06-08T10:58:04.124Z,5.23
2018-06-08T11:00:33.144Z,4.70
2018-06-08T11:03:02.259Z,4.50
2018-06-08T11:05:32.247Z,4.23
2018-06-08T11:08:02.952Z,4.93
2018-06-08T11:10:32.151Z,4.70
2018-06-08T11:13:01.671Z,3.47
2018-06-08T11:15:31.896Z,4.50
2018-06-08T11:18:00.921Z,4.63
2018-06-08T11:20:30.173Z,4.60
2018-06-08T11:22:59.366Z,4.37
2018-06-08T11:25:28.555Z,4.13
2018-06-08T11:27:57.604Z,3.43
2018-06-08T11:30:27.073Z,3.50
2018-06-08T11:32:57.228Z,3.80
2018-06-08T11:35:26.838Z,3.50
2018-06-08T11:37:56.606Z,3.10
2018-06-08T11:40:26.047Z,4.50
2018-06-08T11:42:55.395Z,3.33
2018-06-08T11:45:24.798Z,3.17
2018-06-08T11:47:54.321Z,3.60
2018-06-08T11:50:23.932Z,2.73
2018-06-08T11:52:53.434Z,2.27
2018-06-08T11:55:23.298Z,2.17
2018-06-08T11:57:52.765Z,2.67
2018-06-08T12:00:23.464Z,2.80
2018-06-08T12:02:53.204Z,2.77
2018-06-08T12:05:22.669Z,2.40
2018-06-08T12:07:52.056Z,4.03
2018-06-08T12:10:21.512Z,3.20
2018-06-08T12:12:50.999Z,2.70
2018-06-08T12:15:20.685Z,3.37
2018-06-08T12:17:49.964Z,2.00
2018-06-08T12:20:19.348Z,3.07
2018-06-08T12:22:48.642Z,2.80
2018-06-08T12:25:18.073Z,2.20
2018-06-08T12:27:47.517Z,2.40
2018-06-08T12:30:16.816Z,3.07
2018-06-08T12:32:46.153Z,1.87
2018-06-08T12:35:15.499Z,2.30
2018-06-08T12:37:44.883Z,3.43
2018-06-08T12:40:14.911Z,3.33
2018-06-08T12:42:44.664Z,2.67
2018-06-08T12:45:14.001Z,4.27
2018-06-08T12:47:43.358Z,2.40
2018-06-08T12:50:12.724Z,2.33
2018-06-08T12:52:42.166Z,2.30
2018-06-08T12:55:12.642Z,3.30
2018-06-08T12:57:42.012Z,2.53
2018-06-08T13:00:11.554Z,2.47
2018-06-08T13:02:41.703Z,2.83
2018-06-08T13:05:11.006Z,2.90
2018-06-08T13:07:40.307Z,2.47
2018-06-08T13:10:09.548Z,2.67
2018-06-08T13:12:38.879Z,3.77
2018-06-08T13:15:08.190Z,4.10
2018-06-08T13:17:37.921Z,2.50
2018-06-08T13:20:07.292Z,2.33
2018-06-08T13:22:36.440Z,2.40
2018-06-08T13:25:05.920Z,2.43
2018-06-08T13:27:35.172Z,3.77
2018-06-08T13:30:04.506Z,2.40
2018-06-08T13:32:33.776Z,2.10
2018-06-08T13:35:03.119Z,2.13
2018-06-08T13:37:32.366Z,3.20
2018-06-08T13:40:01.682Z,2.20
2018-06-08T13:42:31.104Z,2.33
2018-06-08T13:45:00.469Z,2.40
2018-06-08T13:47:29.923Z,2.53
2018-06-08T13:49:59.188Z,2.70
2018-06-08T13:52:28.614Z,2.57
2018-06-08T13:54:58.008Z,2.40
2018-06-08T13:57:27.381Z,1.70
2018-06-08T13:59:56.813Z,2.50
2018-06-08T14:02:26.037Z,2.70
2018-06-08T14:04:55.485Z,2.50
2018-06-08T14:07:24.917Z,3.63
2018-06-08T14:09:54.339Z,3.40
2018-06-08T14:12:23.708Z,3.60
2018-06-08T14:14:53.112Z,2.90
2018-06-08T14:17:22.573Z,3.87
2018-06-08T14:19:53.569Z,3.00
2018-06-08T14:22:22.885Z,2.97
2018-06-08T14:24:52.183Z,2.73
2018-06-08T14:27:21.538Z,4.00
2018-06-08T14:29:50.997Z,2.60
2018-06-08T14:32:20.807Z,2.40
2018-06-08T14:34:50.376Z,2.70
2018-06-08T14:37:19.708Z,3.23
2018-06-08T14:39:48.977Z,3.90
2018-06-08T14:42:18.806Z,2.70
2018-06-08T14:44:48.251Z,2.93
2018-06-08T14:47:17.559Z,2.77
2018-06-08T14:49:47.060Z,3.47
2018-06-08T14:52:16.675Z,2.43
2018-06-08T14:54:46.004Z,2.53
2018-06-08T14:57:15.365Z,2.40
2018-06-08T14:59:44.729Z,3.00
2018-06-08T15:02:13.952Z,2.40
2018-06-08T15:04:43.374Z,3.07
2018-06-08T15:07:13.613Z,3.13
2018-06-08T15:09:43.648Z,2.93
2018-06-08T15:12:13.118Z,3.30
2018-06-08T15:14:42.751Z,2.93
2018-06-08T15:17:12.289Z,3.00
2018-06-08T15:19:41.980Z,2.47
2018-06-08T15:22:11.597Z,3.80
2018-06-08T15:24:41.194Z,2.77
2018-06-08T15:27:10.776Z,3.10
2018-06-08T15:29:40.052Z,3.20
2018-06-08T15:32:09.675Z,2.80
2018-06-08T15:34:39.091Z,3.60
2018-06-08T15:37:08.553Z,3.40
2018-06-08T15:39:37.952Z,3.57
2018-06-08T15:42:07.318Z,4.50
2018-06-08T15:44:36.794Z,2.70
2018-06-08T15:47:07.263Z,3.70
2018-06-08T15:49:37.477Z,3.90
2018-06-08T15:52:06.899Z,2.93
2018-06-08T15:54:37.281Z,2.83
2018-06-08T15:57:06.683Z,2.80
2018-06-08T15:59:35.943Z,3.33
2018-06-08T16:02:05.593Z,3.07
2018-06-08T16:04:35.638Z,2.73
2018-06-08T16:07:05.039Z,3.00
2018-06-08T16:09:34.469Z,2.87
2018-06-08T16:12:03.819Z,3.27
2018-06-08T16:14:33.074Z,2.97
2018-06-08T16:17:02.491Z,2.60
2018-06-08T16:19:31.877Z,3.50
2018-06-08T16:22:01.211Z,3.23
2018-06-08T16:24:30.455Z,2.40
2018-06-08T16:26:59.874Z,3.07
2018-06-08T16:29:29.334Z,3.63
2018-06-08T16:31:59.457Z,3.10
2018-06-08T16:34:28.749Z,3.93
2018-06-08T16:36:58.416Z,2.50
2018-06-08T16:39:27.826Z,3.00
2018-06-08T16:41:57.314Z,3.87
2018-06-08T16:44:26.878Z,3.80
2018-06-08T16:46:56.795Z,3.37
2018-06-08T16:49:25.983Z,3.70
2018-06-08T16:51:55.347Z,2.30
2018-06-08T16:54:25.551Z,2.80
2018-06-08T16:56:54.960Z,4.20
2018-06-08T16:59:24.283Z,3.17
2018-06-08T17:01:53.654Z,3.83
2018-06-08T17:04:22.943Z,3.47
2018-06-08T17:06:52.375Z,2.90
2018-06-08T17:09:21.866Z,3.27
2018-06-08T17:11:51.184Z,4.20
2018-06-08T17:14:20.436Z,3.47
2018-06-08T17:16:49.918Z,2.80
2018-06-08T17:19:19.356Z,3.50
2018-06-08T17:21:48.914Z,3.43
2018-06-08T17:24:18.343Z,3.70
2018-06-08T17:26:47.697Z,4.43
2018-06-08T17:29:18.165Z,4.90
2018-06-08T17:31:47.641Z,2.80
2018-06-08T17:34:16.894Z,4.37
2018-06-08T17:36:46.238Z,3.67
2018-06-08T17:39:15.613Z,4.10
2018-06-08T17:41:46.234Z,3.93
2018-06-08T17:44:15.763Z,3.97
2018-06-08T17:46:45.275Z,4.03
2018-06-08T17:49:14.754Z,4.93
2018-06-08T17:51:44.907Z,4.63
2018-06-08T17:54:14.359Z,4.40
2018-06-08T17:56:44.410Z,4.30
2018-06-08T17:59:13.634Z,4.83
2018-06-08T18:01:43.001Z,5.30
2018-06-08T18:04:12.797Z,4.37
2018-06-08T18:06:43.265Z,5.77
2018-06-08T18:09:12.657Z,4.90
2018-06-08T18:11:42.011Z,5.20
2018-06-08T18:14:12.125Z,5.73
2018-06-08T18:16:41.681Z,3.80
2018-06-08T18:19:11.002Z,4.80
2018-06-08T18:21:40.425Z,4.83
2018-06-08T18:24:10.439Z,4.30
2018-06-08T18:26:41.574Z,5.00
2018-06-08T18:29:10.692Z,4.60
2018-06-08T18:31:40.037Z,5.70
2018-06-08T18:34:09.651Z,4.70
2018-06-08T18:36:41.305Z,5.93
2018-06-08T18:39:10.741Z,5.10
2018-06-08T18:41:41.096Z,5.70
2018-06-08T18:44:10.666Z,5.03
2018-06-08T18:46:40.090Z,5.40
2018-06-08T18:49:10.106Z,5.60
2018-06-08T18:51:39.445Z,5.97
2018-06-08T18:54:08.802Z,5.57
2018-06-08T18:56:39.597Z,5.80
2018-06-08T18:59:09.169Z,5.27
2018-06-08T19:01:38.957Z,5.30
2018-06-08T19:04:08.440Z,5.33
2018-06-08T19:06:37.473Z,4.80
2018-06-08T19:09:10.381Z,4.70
2018-06-08T19:11:41.486Z,4.87
2018-06-08T19:14:11.502Z,5.63
2018-06-08T19:16:41.413Z,5.37
2018-06-08T19:19:12.830Z,5.13
2018-06-08T19:21:42.829Z,5.43
2018-06-08T19:24:13.742Z,5.60
2018-06-08T19:26:48.410Z,4.60
2018-06-08T19:29:18.671Z,4.73
2018-06-08T19:31:50.029Z,4.80
2018-06-08T19:34:19.792Z,5.20
2018-06-08T19:36:49.414Z,5.47
2018-06-08T19:39:19.772Z,5.00
2018-06-08T19:41:49.471Z,5.60
2018-06-08T19:44:18.873Z,5.27
2018-06-08T19:46:48.353Z,5.60
2018-06-08T19:49:18.114Z,5.37
2018-06-08T19:51:50.003Z,5.00
2018-06-08T19:54:19.610Z,4.97
2018-06-08T19:56:49.162Z,5.83
2018-06-08T19:59:18.614Z,6.20
2018-06-08T20:01:48.014Z,4.80
2018-06-08T20:04:17.577Z,5.23
2018-06-08T20:06:47.117Z,5.70
2018-06-08T20:09:16.469Z,5.10
2018-06-08T20:11:45.904Z,5.13
2018-06-08T20:14:14.957Z,5.50
2018-06-08T20:16:44.712Z,5.43
2018-06-08T20:19:14.057Z,5.13
2018-06-08T20:21:43.392Z,4.97
2018-06-08T20:24:12.834Z,6.87
2018-06-08T20:26:42.176Z,4.90
2018-06-08T20:29:11.620Z,5.10
2018-06-08T20:31:41.027Z,5.20
2018-06-08T20:34:10.549Z,5.50
2018-06-08T20:36:39.912Z,5.50
2018-06-08T20:39:09.454Z,5.67
2018-06-08T20:41:39.781Z,4.70
2018-06-08T20:44:09.286Z,5.20
2018-06-08T20:46:38.693Z,4.90
2018-06-08T20:49:08.015Z,5.20
2018-06-08T20:51:37.308Z,5.43
2018-06-08T20:54:06.938Z,5.20
2018-06-08T20:56:36.507Z,5.40
2018-06-08T20:59:05.968Z,5.47
2018-06-08T21:01:35.437Z,4.80
2018-06-08T21:04:04.820Z,4.50
2018-06-08T21:06:34.264Z,4.97
2018-06-08T21:09:04.961Z,5.23
2018-06-08T21:11:35.335Z,4.40
2018-06-08T21:14:04.557Z,5.20
2018-06-08T21:16:33.858Z,4.67
2018-06-08T21:19:03.120Z,5.17
2018-06-08T21:21:32.426Z,5.00
2018-06-08T21:24:01.684Z,4.47
2018-06-08T21:26:31.206Z,4.80
2018-06-08T21:29:00.576Z,5.67
2018-06-08T21:31:30.043Z,5.10
2018-06-08T21:33:59.484Z,5.43
2018-06-08T21:36:28.809Z,5.83
2018-06-08T21:38:59.154Z,5.67
2018-06-08T21:41:28.403Z,6.07
2018-06-08T21:43:57.803Z,6.57
2018-06-08T21:46:27.308Z,5.33
2018-06-08T21:48:56.789Z,5.00
2018-06-08T21:51:26.080Z,5.27
2018-06-08T21:53:55.371Z,6.33
2018-06-08T21:56:24.670Z,4.57
2018-06-08T21:58:54.116Z,4.77
2018-06-08T22:01:23.690Z,6.37
2018-06-08T22:03:53.195Z,4.90
2018-06-08T22:06:22.724Z,5.03
2018-06-08T22:08:52.273Z,5.77
2018-06-08T22:11:21.731Z,5.80
2018-06-08T22:13:51.277Z,6.07
2018-06-08T22:16:20.715Z,4.77
2018-06-08T22:18:50.126Z,4.93
2018-06-08T22:21:19.527Z,5.07
2018-06-08T22:23:48.869Z,5.37
2018-06-08T22:26:18.480Z,4.53
2018-06-08T22:28:47.781Z,4.90
2018-06-08T22:31:17.230Z,5.00
2018-06-08T22:33:46.582Z,4.67
2018-06-08T22:36:15.941Z,5.00
2018-06-08T22:38:45.190Z,5.00
2018-06-08T22:41:14.539Z,4.70
2018-06-08T22:43:43.894Z,5.07
2018-06-08T22:46:13.215Z,5.40
2018-06-08T22:48:42.481Z,6.00
2018-06-08T22:51:11.490Z,5.67
2018-06-08T22:53:40.837Z,5.03
2018-06-08T22:56:10.669Z,5.53
2018-06-08T22:58:39.657Z,5.33
2018-06-08T23:01:09.143Z,6.20
2018-06-08T23:03:38.131Z,6.00
2018-06-08T23:06:07.184Z,4.80
2018-06-08T23:08:36.183Z,6.80
2018-06-08T23:11:05.373Z,5.17
2018-06-08T23:13:34.574Z,5.20
2018-06-08T23:16:03.661Z,5.17
2018-06-08T23:18:32.775Z,6.10
2018-06-08T23:21:01.845Z,7.07
2018-06-08T23:23:30.910Z,5.43
2018-06-08T23:26:00.014Z,6.00
2018-06-08T23:28:29.054Z,5.97
2018-06-08T23:30:58.053Z,5.50
2018-06-08T23:33:27.140Z,5.97
2018-06-08T23:35:56.235Z,5.80
2018-06-08T23:38:25.294Z,5.67
2018-06-08T23:40:54.338Z,4.80
2018-06-08T23:43:23.360Z,5.03
2018-06-08T23:45:52.396Z,5.97
2018-06-08T23:48:22.884Z,6.17
2018-06-08T23:50:51.919Z,6.13
2018-06-08T23:53:20.936Z,5.50
2018-06-08T23:55:49.952Z,4.77
2018-06-08T23:58:18.925Z,5.37
